Time;durP1;ratioP1;P1;durP2;ratioP2;P2;SDS_P1;SDS_P2;PMS_P1;PMS_P2;Temp;Humidity;BMP_temperature;BMP_pressure;BME280_temperature;BME280_humidity;BME280_pressure;Samples;Min_cycle;Max_cycle;Signal;HPM_P1;HPM_P2
2022/03/31 00:00:39;;;;;;;1.33;0.75;;;;;;;0.88;74.46;99419.31;4991335;28;20045;-47
2022/03/31 00:03:08;;;;;;;4.95;1.63;;;;;;;0.86;73.88;99414.16;5007263;28;20046;-43
2022/03/31 00:05:36;;;;;;;4.43;2.10;;;;;;;0.85;73.74;99414.13;5000375;28;20053;-45
2022/03/31 00:08:05;;;;;;;3.60;1.98;;;;;;;0.79;74.32;99409.72;5007516;28;20053;-43
2022/03/31 00:10:35;;;;;;;5.28;1.48;;;;;;;0.77;73.68;99412.22;5001610;28;20053;-49
2022/03/31 00:13:05;;;;;;;1.90;0.95;;;;;;;0.72;73.98;99415.47;5003928;28;20671;-44
2022/03/31 00:15:32;;;;;;;5.82;1.42;;;;;;;0.70;74.57;99419.66;5002494;28;20077;-44
2022/03/31 00:18:01;;;;;;;3.50;1.25;;;;;;;0.65;75.16;99417.00;5004283;28;20050;-47
2022/03/31 00:20:28;;;;;;;1.55;0.80;;;;;;;0.62;74.51;99422.00;5002510;28;20508;-43
2022/03/31 00:22:55;;;;;;;11.40;1.70;;;;;;;0.61;74.37;99430.47;4999615;28;20108;-45
2022/03/31 00:25:23;;;;;;;4.15;1.42;;;;;;;0.61;74.68;99427.94;5001638;28;20057;-43
2022/03/31 00:27:51;;;;;;;1.02;0.75;;;;;;;0.57;74.38;99434.63;4997738;28;20108;-42
2022/03/31 00:30:19;;;;;;;1.48;0.85;;;;;;;0.54;75.09;99428.59;4994882;28;20046;-45
2022/03/31 00:32:45;;;;;;;2.45;0.90;;;;;;;0.52;74.29;99431.09;4997581;28;20437;-47
2022/03/31 00:35:12;;;;;;;2.35;0.65;;;;;;;0.50;74.81;99431.03;4999181;28;20112;-42
2022/03/31 00:37:41;;;;;;;2.70;1.13;;;;;;;0.49;74.68;99431.88;5002681;28;20449;-43
2022/03/31 00:40:10;;;;;;;1.65;0.98;;;;;;;0.46;74.31;99430.91;5003264;28;20119;-45
2022/03/31 00:42:40;;;;;;;2.42;0.98;;;;;;;0.46;74.04;99431.78;5007796;28;20045;-44
2022/03/31 00:45:13;;;;;;;1.52;0.90;;;;;;;0.44;74.32;99435.09;5000357;28;20077;-42
2022/03/31 00:47:40;;;;;;;1.60;0.95;;;;;;;0.44;74.39;99433.41;4999406;28;20692;-42
2022/03/31 00:50:08;;;;;;;3.25;1.17;;;;;;;0.43;74.35;99434.22;4999211;28;20482;-45
2022/03/31 00:52:35;;;;;;;1.38;0.80;;;;;;;0.35;74.08;99428.06;5005480;28;20316;-45
2022/03/31 00:55:05;;;;;;;3.00;1.23;;;;;;;0.37;74.07;99431.50;4998957;28;20066;-50
2022/03/31 00:57:33;;;;;;;1.58;1.00;;;;;;;0.31;73.97;99447.50;5000556;28;20076;-41
2022/03/31 01:00:00;;;;;;;2.10;0.90;;;;;;;0.30;74.61;99439.81;5001241;28;20046;-41
2022/03/31 01:02:30;;;;;;;2.20;1.08;;;;;;;0.27;73.54;99434.63;5003157;28;20046;-44
2022/03/31 01:05:00;;;;;;;2.92;1.05;;;;;;;0.23;74.41;99439.63;5003777;28;20521;-43
2022/03/31 01:07:27;;;;;;;5.53;0.75;;;;;;;0.20;73.87;99434.41;5004457;28;20103;-44
2022/03/31 01:09:56;;;;;;;5.85;0.80;;;;;;;0.18;74.48;99430.97;5004278;28;20049;-43
2022/03/31 01:12:23;;;;;;;1.75;0.80;;;;;;;0.14;73.87;99439.34;5003563;28;20046;-43
2022/03/31 01:15:09;;;;;;;1.45;0.60;;;;;;;0.09;73.86;99438.34;5000993;28;20050;-42
2022/03/31 01:17:38;;;;;;;2.03;0.60;;;;;;;0.09;74.33;99417.97;5001093;28;20054;-45
2022/03/31 01:20:08;;;;;;;3.20;0.38;;;;;;;0.07;73.69;99428.09;5000960;28;20046;-42
2022/03/31 01:22:35;;;;;;;0.93;0.63;;;;;;;0.02;74.35;99428.78;5006052;28;20045;-45
2022/03/31 01:25:05;;;;;;;1.63;0.80;;;;;;;-0.01;74.48;99425.34;5000674;28;21220;-45
2022/03/31 01:27:35;;;;;;;0.98;0.43;;;;;;;-0.04;74.71;99420.16;5004086;28;20042;-43
2022/03/31 01:30:05;;;;;;;4.40;0.68;;;;;;;-0.07;74.91;99430.22;5001948;28;20563;-42
2022/03/31 01:32:32;;;;;;;0.90;0.50;;;;;;;-0.07;74.91;99424.28;5007697;28;20056;-45
2022/03/31 01:34:58;;;;;;;0.88;0.50;;;;;;;-0.09;74.64;99436.09;5006142;28;20053;-47
2022/03/31 01:37:25;;;;;;;3.05;0.73;;;;;;;-0.09;74.82;99436.97;5007928;28;20052;-45
2022/03/31 01:39:51;;;;;;;0.80;0.30;;;;;;;-0.11;74.89;99438.59;5004461;28;20450;-42
2022/03/31 01:42:18;;;;;;;2.78;1.10;;;;;;;-0.15;75.19;99426.59;5005345;28;20136;-42
2022/03/31 01:44:45;;;;;;;1.60;0.60;;;;;;;-0.13;74.85;99430.06;5006661;28;20054;-44
2022/03/31 01:47:11;;;;;;;0.45;0.35;;;;;;;-0.18;74.91;99422.28;5004810;28;20056;-42
2022/03/31 01:49:38;;;;;;;1.13;0.63;;;;;;;-0.21;75.06;99432.34;5003925;28;20049;-45
2022/03/31 01:52:06;;;;;;;0.75;0.55;;;;;;;-0.21;75.12;99423.88;5001562;28;20045;-43
2022/03/31 01:54:34;;;;;;;0.32;0.32;;;;;;;-0.26;75.58;99432.22;5006489;28;20433;-46
2022/03/31 01:57:01;;;;;;;2.80;0.50;;;;;;;-0.27;75.55;99427.09;5002275;28;20057;-42
2022/03/31 01:59:37;;;;;;;2.13;1.23;;;;;;;-0.32;75.54;99424.41;5001391;28;20050;-42
2022/03/31 02:02:05;;;;;;;1.35;0.50;;;;;;;-0.29;75.54;99427.03;4999374;28;20509;-43
2022/03/31 02:04:36;;;;;;;1.23;0.55;;;;;;;-0.32;75.54;99419.31;5000979;28;20446;-42
2022/03/31 02:07:03;;;;;;;1.75;0.70;;;;;;;-0.36;75.57;99420.03;5006871;28;20382;-43
2022/03/31 02:09:30;;;;;;;0.77;0.38;;;;;;;-0.38;75.85;99416.56;5001012;28;20149;-47
2022/03/31 02:11:57;;;;;;;2.35;0.52;;;;;;;-0.39;75.74;99412.28;5003862;28;20042;-45
2022/03/31 02:14:25;;;;;;;1.10;0.60;;;;;;;-0.44;76.22;99399.41;5003422;28;20563;-43
2022/03/31 02:16:52;;;;;;;0.25;0.25;;;;;;;-0.50;76.25;99406.00;5003788;28;20049;-44
2022/03/31 02:19:19;;;;;;;0.43;0.35;;;;;;;-0.51;76.15;99392.41;5000915;28;20046;-45
2022/03/31 02:21:46;;;;;;;1.73;0.73;;;;;;;-0.52;76.40;99394.09;5010330;28;20093;-44
2022/03/31 02:24:14;;;;;;;1.67;0.90;;;;;;;-0.55;76.44;99396.53;4997769;28;24518;-43
2022/03/31 02:26:42;;;;;;;0.52;0.40;;;;;;;-0.56;76.13;99394.81;5003520;28;20045;-41
2022/03/31 02:29:09;;;;;;;1.33;0.93;;;;;;;-0.60;76.82;99393.00;5005794;28;20621;-44
2022/03/31 02:31:36;;;;;;;1.83;0.85;;;;;;;-0.57;76.69;99393.06;5000346;28;20181;-42
2022/03/31 02:34:03;;;;;;;7.53;1.15;;;;;;;-0.58;76.44;99391.34;5002110;28;20100;-43
2022/03/31 02:36:30;;;;;;;1.63;0.68;;;;;;;-0.60;76.71;99398.09;5001978;28;20478;-45
2022/03/31 02:38:57;;;;;;;1.00;0.68;;;;;;;-0.60;76.89;99397.22;4998977;28;20062;-46
2022/03/31 02:41:24;;;;;;;2.83;0.90;;;;;;;-0.62;76.83;99389.53;5002104;28;20108;-44
2022/03/31 02:43:52;;;;;;;3.03;0.80;;;;;;;-0.65;76.65;99387.75;5003231;28;20549;-45
2022/03/31 02:46:19;;;;;;;14.23;1.77;;;;;;;-0.66;77.14;99392.78;5000615;28;20061;-46
2022/03/31 02:48:52;;;;;;;3.92;0.80;;;;;;;-0.66;77.11;99386.03;5003980;28;20069;-45
2022/03/31 02:51:18;;;;;;;2.15;1.02;;;;;;;-0.65;77.00;99394.50;5003104;28;20050;-44
2022/03/31 02:56:32;;;;;;;1.15;0.98;;;;;;;-0.65;76.85;99394.50;5002034;28;20096;-41
2022/03/31 02:58:59;;;;;;;3.05;1.20;;;;;;;-0.64;76.81;99396.25;5004798;28;20470;-43
2022/03/31 03:01:27;;;;;;;1.60;1.15;;;;;;;-0.65;77.15;99399.59;4996597;28;20046;-43
2022/03/31 03:04:11;;;;;;;1.90;0.77;;;;;;;-0.67;77.31;99406.34;5001677;28;20104;-42
2022/03/31 03:06:38;;;;;;;4.78;0.93;;;;;;;-0.69;76.81;99413.91;4999400;28;20053;-44
2022/03/31 03:09:07;;;;;;;2.50;0.93;;;;;;;-0.69;76.97;99407.94;4998920;28;20053;-41
2022/03/31 03:11:34;;;;;;;1.13;0.70;;;;;;;-0.74;77.33;99410.38;5003192;28;20192;-50
2022/03/31 03:14:01;;;;;;;1.52;0.80;;;;;;;-0.73;76.76;99416.28;5003827;28;20053;-43
2022/03/31 03:16:27;;;;;;;1.10;0.47;;;;;;;-0.74;76.74;99415.44;4999800;28;20053;-45
2022/03/31 03:18:55;;;;;;;1.80;0.75;;;;;;;-0.76;76.60;99417.06;5000093;28;20085;-44
2022/03/31 03:21:22;;;;;;;2.95;0.82;;;;;;;-0.76;77.26;99408.56;5002872;28;20046;-40
2022/03/31 03:23:48;;;;;;;1.67;0.60;;;;;;;-0.80;76.69;99408.47;5003037;28;20469;-44
2022/03/31 03:26:16;;;;;;;3.05;2.10;;;;;;;-0.78;76.86;99404.28;5004204;28;20045;-41
2022/03/31 03:28:42;;;;;;;1.52;1.10;;;;;;;-0.86;77.12;99405.72;5000876;28;20045;-43
2022/03/31 03:31:09;;;;;;;1.42;0.88;;;;;;;-0.84;77.06;99404.06;5003655;28;20088;-46
2022/03/31 03:33:36;;;;;;;1.30;0.55;;;;;;;-0.88;77.08;99402.25;5002625;28;20065;-46
2022/03/31 03:36:04;;;;;;;2.53;1.02;;;;;;;-0.90;77.49;99403.91;5004191;28;20050;-44
2022/03/31 03:38:31;;;;;;;2.05;0.63;;;;;;;-0.93;77.23;99403.78;5003212;28;20096;-42
2022/03/31 03:40:58;;;;;;;2.35;0.77;;;;;;;-0.93;77.43;99399.56;5004499;28;20490;-43
2022/03/31 03:43:25;;;;;;;1.65;1.23;;;;;;;-0.95;77.24;99396.09;4999570;28;20050;-42
2022/03/31 03:45:52;;;;;;;1.80;1.02;;;;;;;-0.94;77.85;99402.06;5002092;28;20050;-42
2022/03/31 03:48:20;;;;;;;0.90;0.55;;;;;;;-0.95;77.25;99401.19;5001069;28;20181;-42
2022/03/31 03:50:47;;;;;;;1.13;0.55;;;;;;;-0.95;77.13;99410.50;5002718;28;20050;-45
2022/03/31 03:53:15;;;;;;;2.10;0.50;;;;;;;-0.99;77.42;99412.06;5001795;28;20088;-42
2022/03/31 03:55:41;;;;;;;3.08;0.88;;;;;;;-0.98;77.07;99406.16;5002865;28;20049;-41
2022/03/31 03:58:08;;;;;;;1.90;0.77;;;;;;;-0.98;77.57;99412.94;5006506;28;20103;-45
2022/03/31 04:00:35;;;;;;;1.10;0.55;;;;;;;-0.97;77.23;99412.13;5002715;28;20688;-45
2022/03/31 04:03:02;;;;;;;0.63;0.55;;;;;;;-1.03;77.66;99412.78;4999126;28;20046;-42
2022/03/31 04:05:29;;;;;;;2.92;1.02;;;;;;;-1.00;76.95;99412.00;5002360;28;20038;-46
2022/03/31 04:07:56;;;;;;;1.38;1.05;;;;;;;-1.01;77.56;99417.91;4997692;28;20050;-45
2022/03/31 04:10:23;;;;;;;0.85;0.50;;;;;;;-1.05;77.63;99424.56;5001435;28;20084;-41
2022/03/31 04:12:49;;;;;;;1.15;0.52;;;;;;;-1.02;77.31;99423.81;5001146;28;20080;-42
2022/03/31 04:15:16;;;;;;;1.48;0.80;;;;;;;-1.02;77.33;99416.19;5000476;28;20544;-42
2022/03/31 04:17:43;;;;;;;1.60;1.40;;;;;;;-1.02;76.94;99423.81;5001057;28;20050;-42
2022/03/31 04:20:11;;;;;;;2.03;0.65;;;;;;;-1.05;77.47;99430.53;5002891;28;20046;-43
2022/03/31 04:22:38;;;;;;;2.85;1.80;;;;;;;-1.06;77.05;99425.38;5002383;28;20053;-46
2022/03/31 04:25:06;;;;;;;5.00;1.17;;;;;;;-1.05;77.32;99425.44;5002687;28;20054;-42
2022/03/31 04:27:50;;;;;;;0.77;0.63;;;;;;;-1.05;77.13;99419.47;5003225;28;20045;-40
2022/03/31 04:30:20;;;;;;;1.20;0.70;;;;;;;-1.09;77.28;99425.28;5000127;28;20449;-44
2022/03/31 04:32:48;;;;;;;3.95;0.73;;;;;;;-1.11;77.36;99430.31;4999636;28;20053;-44
2022/03/31 04:35:16;;;;;;;1.23;0.50;;;;;;;-1.13;77.64;99428.53;5001905;28;20046;-40
2022/03/31 04:37:42;;;;;;;1.98;1.00;;;;;;;-1.10;77.54;99421.88;4999506;28;20146;-44
2022/03/31 04:40:10;;;;;;;2.33;1.05;;;;;;;-1.11;77.57;99425.25;5001235;28;20042;-44
2022/03/31 04:42:37;;;;;;;1.27;1.05;;;;;;;-1.13;77.31;99415.81;5001920;28;20111;-45
2022/03/31 04:45:04;;;;;;;1.60;1.25;;;;;;;-1.15;77.22;99418.28;5001193;28;20057;-43
2022/03/31 04:47:31;;;;;;;1.17;0.75;;;;;;;-1.13;77.58;99411.59;5002651;28;20089;-41
2022/03/31 04:49:58;;;;;;;1.13;0.60;;;;;;;-1.16;77.51;99411.50;4999288;28;20050;-47
2022/03/31 04:52:25;;;;;;;3.75;0.82;;;;;;;-1.16;77.34;99403.88;5000612;28;20105;-41
2022/03/31 04:54:51;;;;;;;1.60;0.88;;;;;;;-1.16;77.40;99406.41;5000999;28;20073;-44
2022/03/31 04:57:20;;;;;;;1.80;0.52;;;;;;;-1.21;77.23;99407.94;4999592;28;20054;-43
2022/03/31 04:59:47;;;;;;;1.65;0.77;;;;;;;-1.19;77.79;99411.38;5002487;28;20084;-41
2022/03/31 05:02:14;;;;;;;1.92;0.80;;;;;;;-1.18;77.84;99413.13;5004478;28;20132;-43
2022/03/31 05:04:41;;;;;;;1.98;0.73;;;;;;;-1.19;78.04;99422.41;5000031;28;20050;-42
2022/03/31 05:07:08;;;;;;;2.20;0.95;;;;;;;-1.16;77.43;99421.66;5000302;28;20054;-43
2022/03/31 05:09:35;;;;;;;1.45;0.65;;;;;;;-1.17;77.29;99412.31;5001731;28;21887;-42
2022/03/31 05:12:02;;;;;;;2.67;0.75;;;;;;;-1.14;77.68;99427.69;5004451;28;20123;-44
2022/03/31 05:14:29;;;;;;;1.38;1.27;;;;;;;-1.14;77.24;99435.28;5000367;28;20104;-45
2022/03/31 05:16:56;;;;;;;1.25;0.63;;;;;;;-1.09;77.50;99436.31;4999333;28;21336;-44
2022/03/31 05:19:22;;;;;;;1.70;0.90;;;;;;;-1.05;77.78;99434.72;4998554;28;20064;-44
2022/03/31 05:21:49;;;;;;;1.10;0.43;;;;;;;-1.00;77.70;99442.53;4991305;28;20050;-45
2022/03/31 05:24:16;;;;;;;2.78;0.77;;;;;;;-0.97;77.74;99445.19;5001612;28;20514;-45
2022/03/31 05:26:43;;;;;;;2.47;0.88;;;;;;;-0.91;77.69;99450.47;4998353;28;20573;-44
2022/03/31 05:29:09;;;;;;;3.42;1.25;;;;;;;-0.86;77.66;99456.56;5000626;28;20356;-44
2022/03/31 05:31:36;;;;;;;1.80;0.77;;;;;;;-0.83;77.59;99461.78;5003541;28;20049;-44
2022/03/31 05:34:03;;;;;;;8.27;1.00;;;;;;;-0.78;78.21;99475.50;5000140;28;20050;-43
2022/03/31 05:36:30;;;;;;;5.00;1.17;;;;;;;-0.71;77.98;99465.53;5003640;28;20052;-43
2022/03/31 05:38:56;;;;;;;1.60;0.80;;;;;;;-0.68;78.13;99465.63;5001827;28;20058;-42
2022/03/31 05:41:24;;;;;;;2.42;1.30;;;;;;;-0.64;77.48;99462.41;5006208;28;20057;-43
2022/03/31 05:43:51;;;;;;;1.98;1.00;;;;;;;-0.59;77.60;99454.91;5002989;28;20460;-49
2022/03/31 05:46:20;;;;;;;6.00;1.33;;;;;;;-0.59;77.14;99471.03;5001277;28;20051;-43
2022/03/31 05:48:46;;;;;;;2.42;0.80;;;;;;;-0.59;77.39;99465.06;4997841;28;20401;-42
2022/03/31 05:51:13;;;;;;;4.25;1.40;;;;;;;-0.56;77.29;99471.16;5002193;28;20712;-43
2022/03/31 05:53:40;;;;;;;1.27;0.68;;;;;;;-0.50;78.11;99477.25;5001059;28;20116;-42
2022/03/31 05:56:07;;;;;;;1.55;0.80;;;;;;;-0.48;77.51;99483.25;5004392;28;20045;-44
2022/03/31 05:58:34;;;;;;;1.27;0.65;;;;;;;-0.46;77.82;99481.59;4998917;28;20104;-45
2022/03/31 06:01:02;;;;;;;2.70;0.80;;;;;;;-0.42;77.47;99489.41;5001093;28;20065;-41
2022/03/31 06:03:28;;;;;;;1.80;1.13;;;;;;;-0.40;77.59;99492.84;4998477;28;20615;-46
2022/03/31 06:05:55;;;;;;;1.48;0.80;;;;;;;-0.37;78.05;99494.66;4999406;28;20107;-45
2022/03/31 06:08:23;;;;;;;1.88;1.13;;;;;;;-0.42;78.99;99493.63;5005417;28;20705;-42
2022/03/31 06:10:50;;;;;;;3.22;1.20;;;;;;;-0.43;79.45;99504.63;4999085;28;21235;-43
2022/03/31 06:13:17;;;;;;;6.50;1.73;;;;;;;-0.42;80.02;99508.88;5002958;28;20104;-41
2022/03/31 06:15:43;;;;;;;2.20;1.00;;;;;;;-0.41;80.08;99515.69;4998905;28;20088;-44
2022/03/31 06:18:10;;;;;;;7.97;1.55;;;;;;;-0.41;80.05;99521.66;4996477;28;20080;-42
2022/03/31 06:20:37;;;;;;;2.03;0.95;;;;;;;-0.36;79.83;99521.81;5000924;28;20046;-50
2022/03/31 06:23:04;;;;;;;3.28;1.88;;;;;;;-0.35;79.74;99526.09;5003254;28;20654;-45
2022/03/31 06:25:48;;;;;;;2.20;1.20;;;;;;;-0.34;80.07;99532.91;5002025;28;20596;-42
2022/03/31 06:28:16;;;;;;;2.15;1.02;;;;;;;-0.35;80.20;99528.63;5008342;28;20642;-45
2022/03/31 06:30:43;;;;;;;1.55;1.45;;;;;;;-0.28;79.79;99535.66;5006373;28;20654;-48
2022/03/31 06:33:10;;;;;;;1.17;0.63;;;;;;;-0.25;79.85;99537.44;5002315;28;20748;-47
2022/03/31 06:35:37;;;;;;;0.77;0.55;;;;;;;-0.23;80.07;99534.94;5011103;28;20046;-48
2022/03/31 06:38:04;;;;;;;1.23;0.85;;;;;;;-0.20;79.89;99535.06;4995814;28;20050;-46
2022/03/31 06:40:31;;;;;;;1.65;1.15;;;;;;;-0.13;80.04;99516.63;5002296;28;20482;-46
2022/03/31 06:42:58;;;;;;;1.58;1.42;;;;;;;-0.03;79.55;99538.16;5003819;28;20918;-46
2022/03/31 06:45:25;;;;;;;0.88;0.68;;;;;;;0.06;79.18;99542.66;5000368;28;20050;-44
2022/03/31 06:47:55;;;;;;;1.70;0.60;;;;;;;0.16;78.71;99546.38;4994259;28;20320;-45
2022/03/31 06:50:27;;;;;;;0.80;0.25;;;;;;;0.21;78.10;99557.56;4994141;28;20103;-44
2022/03/31 06:52:56;;;;;;;0.60;0.47;;;;;;;0.29;78.14;99555.25;4998377;28;20092;-45
2022/03/31 06:55:24;;;;;;;0.68;0.47;;;;;;;0.27;78.03;99567.06;5000576;28;20060;-50
2022/03/31 06:57:50;;;;;;;1.02;1.02;;;;;;;0.24;77.65;99568.69;5001479;28;20050;-49
2022/03/31 07:00:17;;;;;;;0.57;0.32;;;;;;;0.31;77.72;99561.25;4998378;28;20050;-46
2022/03/31 07:02:44;;;;;;;1.38;0.30;;;;;;;0.48;77.10;99562.63;4998653;28;20429;-48
2022/03/31 07:05:10;;;;;;;1.65;0.77;;;;;;;0.61;77.52;99563.03;4997240;28;20164;-46
2022/03/31 07:07:41;;;;;;;;;;;;;;;0.66;76.50;99570.78;5000660;28;20437;-48
2022/03/31 07:10:08;;;;;;;0.50;0.50;;;;;;;0.70;76.30;99563.28;4996037;28;19937;-46
2022/03/31 07:12:52;;;;;;;0.43;0.40;;;;;;;0.85;76.16;99572.22;4998302;28;20176;-48
2022/03/31 07:15:19;;;;;;;0.82;0.50;;;;;;;1.44;75.95;99567.84;5000770;28;20054;-47
2022/03/31 07:17:46;;;;;;;0.70;0.45;;;;;;;2.16;74.06;99565.41;5000988;28;20046;-47
2022/03/31 07:20:12;;;;;;;1.48;0.65;;;;;;;2.64;70.85;99563.06;5003752;28;20169;-50
2022/03/31 07:22:44;;;;;;;1.40;1.30;;;;;;;3.03;68.97;99586.88;5003919;28;20682;-51
2022/03/31 07:25:11;;;;;;;2.40;1.10;;;;;;;3.40;68.21;99576.50;4995667;28;20058;-45
2022/03/31 07:27:38;;;;;;;1.05;0.95;;;;;;;3.20;66.98;99587.22;5005664;28;20054;-49
2022/03/31 07:30:10;;;;;;;0.35;0.35;;;;;;;2.76;67.57;99588.88;4999682;28;20053;-52
2022/03/31 07:32:47;;;;;;;0.60;0.55;;;;;;;2.32;69.81;99597.28;4996128;28;20054;-53
2022/03/31 07:35:14;;;;;;;0.65;0.65;;;;;;;2.02;70.17;99604.25;4999743;28;20108;-47
2022/03/31 07:37:42;;;;;;;0.93;0.57;;;;;;;1.80;71.27;99596.03;5003833;28;20548;-54
2022/03/31 07:40:09;;;;;;;1.60;0.90;;;;;;;1.61;71.47;99606.59;5004410;28;20045;-47
2022/03/31 07:42:36;;;;;;;1.13;0.80;;;;;;;1.48;72.44;99611.38;4999991;28;20551;-50
2022/03/31 07:45:03;;;;;;;2.05;0.70;;;;;;;1.41;73.04;99604.34;4994330;28;20045;-52
2022/03/31 07:47:30;;;;;;;2.40;1.25;;;;;;;1.32;72.61;99620.28;4996554;28;20111;-55
2022/03/31 07:49:56;;;;;;;2.40;0.82;;;;;;;1.24;73.36;99616.66;4997190;28;20049;-49
2022/03/31 07:52:23;;;;;;;2.55;1.00;;;;;;;1.23;73.16;99614.94;4997289;28;20517;-46
2022/03/31 07:55:06;;;;;;;1.80;1.23;;;;;;;1.21;74.41;99631.91;4998121;28;20046;-54
2022/03/31 07:57:33;;;;;;;1.45;1.15;;;;;;;1.21;73.64;99627.63;4991904;28;20061;-47
2022/03/31 08:00:03;;;;;;;1.67;1.05;;;;;;;1.13;74.16;99639.31;4996080;28;20050;-50
2022/03/31 08:02:30;;;;;;;1.75;0.80;;;;;;;1.05;74.84;99643.31;5000947;28;20050;-54
2022/03/31 08:04:59;;;;;;;1.83;1.00;;;;;;;0.88;75.69;99647.09;4991785;28;20053;-51
2022/03/31 08:07:32;;;;;;;0.80;0.38;;;;;;;0.73;76.15;99634.75;5001360;28;20049;-57
2022/03/31 08:10:18;;;;;;;1.33;0.77;;;;;;;0.66;76.88;99643.03;4995880;28;20061;-51
2022/03/31 08:12:46;;;;;;;1.38;0.55;;;;;;;0.59;77.32;99636.88;4990067;28;20054;-50
2022/03/31 08:15:17;;;;;;;1.60;1.08;;;;;;;0.60;77.52;99638.59;4987278;28;20057;-53
2022/03/31 08:17:47;;;;;;;1.05;0.55;;;;;;;0.63;76.86;99635.28;4990348;28;20046;-52
2022/03/31 08:20:16;;;;;;;0.65;0.55;;;;;;;0.64;77.08;99644.66;4991766;28;20041;-51
2022/03/31 08:22:44;;;;;;;1.30;0.93;;;;;;;0.67;77.42;99626.91;4988924;28;20045;-52
2022/03/31 08:25:12;;;;;;;1.40;0.70;;;;;;;0.71;77.24;99631.28;4992510;28;20050;-50
2022/03/31 08:27:39;;;;;;;1.38;0.75;;;;;;;0.77;76.21;99631.47;4992360;28;20108;-54
2022/03/31 08:30:11;;;;;;;1.60;0.90;;;;;;;0.92;77.07;99639.53;4989605;28;20110;-53
2022/03/31 08:32:39;;;;;;;3.05;0.77;;;;;;;1.21;76.96;99640.38;4990292;28;20517;-53
2022/03/31 08:35:08;;;;;;;1.55;0.98;;;;;;;1.93;75.21;99653.41;4990725;28;20054;-55
2022/03/31 08:37:35;;;;;;;0.85;0.80;;;;;;;2.59;72.44;99651.56;4990379;28;20050;-53
2022/03/31 08:40:03;;;;;;;4.03;1.35;;;;;;;3.27;70.47;99653.06;4993999;28;20081;-55
2022/03/31 08:42:30;;;;;;;4.80;1.67;;;;;;;3.80;68.99;99664.34;4991743;28;20053;-56
2022/03/31 08:44:59;;;;;;;2.35;1.25;;;;;;;4.11;66.92;99653.75;4986155;28;20046;-53
2022/03/31 08:47:27;;;;;;;3.88;1.65;;;;;;;4.58;66.49;99660.53;4988201;28;20530;-55
2022/03/31 08:50:14;;;;;;;2.08;0.75;;;;;;;4.93;64.39;99671.28;4990466;28;20069;-55
2022/03/31 08:52:41;;;;;;;1.35;0.90;;;;;;;5.05;63.63;99668.00;4987287;28;20050;-53
2022/03/31 08:55:09;;;;;;;3.38;0.65;;;;;;;5.24;62.22;99666.56;4991001;28;20459;-55
2022/03/31 09:00:18;;;;;;;4.65;1.38;;;;;;;5.79;60.33;99652.63;5002611;27;20418;-59
2022/03/31 09:03:02;;;;;;;2.85;1.25;;;;;;;5.89;60.26;99662.19;4978612;28;20058;-58
2022/03/31 09:05:41;;;;;;;1.17;0.63;;;;;;;6.16;59.69;99665.91;4980702;28;21291;-58
2022/03/31 09:08:12;;;;;;;2.28;1.90;;;;;;;6.62;58.32;99669.66;4983869;28;20351;-57
2022/03/31 09:10:44;;;;;;;3.65;1.13;;;;;;;6.99;58.42;99678.50;4987094;28;20168;-62
2022/03/31 09:13:36;;;;;;;2.75;0.93;;;;;;;7.25;56.95;99690.66;4982986;28;20069;-58
2022/03/31 09:16:06;;;;;;;3.13;1.20;;;;;;;7.35;57.07;99691.56;4961727;28;20043;-59
2022/03/31 09:18:34;;;;;;;3.13;1.17;;;;;;;7.46;55.83;99706.22;4968553;28;20054;-58
2022/03/31 09:21:04;;;;;;;5.63;0.98;;;;;;;7.43;54.45;99690.75;4965817;28;20113;-58
2022/03/31 09:23:41;;;;;;;2.08;0.93;;;;;;;6.84;55.69;99690.44;4972010;28;20073;-56
2022/03/31 09:26:12;;;;;;;2.22;0.88;;;;;;;6.88;56.83;99699.91;4967056;28;20058;-54
2022/03/31 09:28:39;;;;;;;;;;;;;;;7.22;55.79;99706.13;4965251;28;20532;-55
2022/03/31 09:31:09;;;;;;;3.22;1.60;;;;;;;7.48;55.21;99692.47;4966573;28;20325;-58
2022/03/31 09:33:48;;;;;;;2.45;0.95;;;;;;;7.36;55.33;99701.88;4965245;28;20086;-56
2022/03/31 09:36:18;;;;;;;2.67;0.75;;;;;;;6.97;53.82;99695.66;4964666;28;20046;-52
2022/03/31 09:38:58;;;;;;;2.30;1.13;;;;;;;6.74;56.37;99719.53;4977974;28;20052;-52
2022/03/31 09:41:27;;;;;;;0.47;0.20;;;;;;;7.14;55.81;99712.09;4965145;28;20042;-48
2022/03/31 09:43:56;;;;;;;1.90;1.23;;;;;;;7.33;54.31;99709.63;4962548;28;20418;-51
2022/03/31 09:46:26;;;;;;;3.92;0.65;;;;;;;7.52;54.14;99719.97;4968215;28;20050;-47
2022/03/31 09:49:15;;;;;;;1.00;0.65;;;;;;;7.69;53.86;99723.50;4968956;28;20070;-46
2022/03/31 09:51:44;;;;;;;1.60;0.68;;;;;;;7.43;52.71;99713.94;4969378;28;20050;-48
2022/03/31 09:54:12;;;;;;;3.03;1.50;;;;;;;7.37;54.10;99711.34;4969697;28;20453;-47
2022/03/31 09:56:39;;;;;;;0.85;0.80;;;;;;;7.39;53.82;99713.91;4980128;28;20190;-46
2022/03/31 09:59:42;;;;;;;3.35;1.15;;;;;;;7.06;54.29;99711.19;4967208;28;20069;-47
2022/03/31 10:02:09;;;;;;;2.22;0.90;;;;;;;7.06;53.91;99721.47;4967514;28;20112;-46
2022/03/31 10:04:36;;;;;;;1.48;0.65;;;;;;;7.40;55.97;99736.25;4968076;28;20053;-45
2022/03/31 10:07:03;;;;;;;2.63;1.17;;;;;;;7.71;53.97;99742.41;4962196;28;20055;-45
2022/03/31 10:09:32;;;;;;;1.95;0.77;;;;;;;7.89;53.33;99740.75;4965091;28;20139;-46
2022/03/31 10:12:07;;;;;;;4.43;0.85;;;;;;;7.87;51.81;99745.03;4964141;28;20066;-47
2022/03/31 10:14:50;;;;;;;4.88;0.82;;;;;;;7.92;52.14;99748.53;4953551;28;20050;-43
2022/03/31 10:17:24;;;;;;;1.45;0.57;;;;;;;8.14;52.49;99742.56;4952852;28;20047;-46
2022/03/31 10:19:51;;;;;;;0.93;0.43;;;;;;;8.41;52.60;99757.22;4948779;28;20043;-47
2022/03/31 10:25:10;;;;;;;1.98;1.15;;;;;;;8.04;52.02;99763.16;4959526;28;20482;-46
2022/03/31 10:27:49;;;;;;;1.77;0.55;;;;;;;7.53;53.24;99770.69;4962832;28;20097;-47
2022/03/31 10:32:57;;;;;;;1.42;0.95;;;;;;;6.11;56.83;99801.25;5036526;28;20408;-47
2022/03/31 10:38:19;;;;;;;1.73;0.40;;;;;;;5.27;58.20;99779.59;5019265;28;20407;-50
2022/03/31 10:40:51;;;;;;;1.85;0.55;;;;;;;5.66;60.11;99768.16;4995214;28;20041;-46
2022/03/31 10:46:19;;;;;;;0.95;0.43;;;;;;;6.56;59.23;99767.44;5032483;28;20397;-47
2022/03/31 10:48:49;;;;;;;2.90;0.20;;;;;;;6.88;58.39;99768.53;5011077;28;20052;-47
2022/03/31 10:51:16;;;;;;;1.52;0.63;;;;;;;7.13;58.42;99748.13;5045583;28;20058;-48
2022/03/31 10:53:50;;;;;;;2.30;0.80;;;;;;;6.88;55.61;99765.97;5015875;28;20049;-44
2022/03/31 10:56:24;;;;;;;2.63;0.47;;;;;;;6.62;56.21;99753.75;5013049;28;20155;-45
2022/03/31 10:58:52;;;;;;;2.97;0.45;;;;;;;6.63;56.96;99753.78;5015521;28;20068;-45
2022/03/31 11:01:21;;;;;;;1.00;0.45;;;;;;;6.45;55.79;99758.75;5015437;28;20100;-48
2022/03/31 11:03:50;;;;;;;1.30;0.43;;;;;;;6.50;55.99;99769.94;5012713;28;20829;-46
2022/03/31 11:06:18;;;;;;;1.60;0.63;;;;;;;6.52;56.80;99761.38;5043764;28;20064;-51
2022/03/31 11:08:47;;;;;;;1.00;0.77;;;;;;;6.64;56.79;99776.06;5016464;28;20103;-48
2022/03/31 11:11:19;;;;;;;1.30;0.63;;;;;;;6.45;53.69;99774.19;5015293;28;20713;-44
2022/03/31 11:13:47;;;;;;;1.55;0.30;;;;;;;6.25;53.55;99785.13;5013454;28;20099;-45
2022/03/31 11:16:15;;;;;;;0.82;0.20;;;;;;;5.97;52.91;99790.78;5001978;28;20046;-49
2022/03/31 11:18:53;;;;;;;1.80;0.65;;;;;;;5.75;54.96;99792.22;4995136;28;20073;-47
2022/03/31 11:21:20;;;;;;;2.25;0.75;;;;;;;5.53;54.25;99789.38;4996461;28;20073;-44
2022/03/31 11:23:48;;;;;;;1.75;0.32;;;;;;;5.43;55.05;99790.09;4998835;28;20053;-45
2022/03/31 11:26:25;;;;;;;1.23;0.55;;;;;;;5.39;55.84;99790.03;4994066;28;20060;-47
2022/03/31 11:28:52;;;;;;;0.75;0.52;;;;;;;5.43;55.63;99775.53;4994689;28;20655;-46
2022/03/31 11:31:20;;;;;;;1.75;0.40;;;;;;;5.71;56.69;99769.91;4998068;28;20440;-47
2022/03/31 11:33:48;;;;;;;1.30;0.20;;;;;;;5.97;57.17;99766.78;5023893;28;20108;-43
2022/03/31 11:36:18;;;;;;;1.02;0.30;;;;;;;5.98;55.01;99773.66;4993591;28;20097;-44
2022/03/31 11:39:00;;;;;;;1.88;0.73;;;;;;;6.17;54.47;99780.75;4998419;28;20049;-47
2022/03/31 11:41:37;;;;;;;2.47;0.60;;;;;;;6.10;53.60;99778.97;4992699;28;20046;-46
2022/03/31 11:44:18;;;;;;;4.40;1.08;;;;;;;6.14;54.25;99783.31;5011901;28;20042;-47
2022/03/31 11:46:49;;;;;;;0.70;0.70;;;;;;;6.00;52.70;99787.38;4993967;28;20054;-43
2022/03/31 11:49:17;;;;;;;0.52;0.30;;;;;;;6.01;54.31;99784.00;4995454;28;20133;-46
2022/03/31 11:51:49;;;;;;;3.42;1.05;;;;;;;6.00;54.04;99784.81;4989818;28;20050;-48
2022/03/31 11:54:15;;;;;;;1.40;0.38;;;;;;;6.04;54.39;99784.91;4994898;28;20875;-46
2022/03/31 11:56:42;;;;;;;0.77;0.70;;;;;;;6.01;54.07;99786.56;4992118;28;20039;-46
2022/03/31 11:59:09;;;;;;;0.85;0.45;;;;;;;6.07;52.63;99784.06;5012340;28;20046;-47
2022/03/31 12:01:43;;;;;;;0.43;0.20;;;;;;;6.06;53.17;99795.22;4988753;28;20046;-46
2022/03/31 12:09:42;;;;;;;1.95;1.50;;;;;;;6.71;52.88;99786.41;5021721;28;20056;-46